Time;durP1;ratioP1;P1;durP2;ratioP2;P2;SDS_P1;SDS_P2;PMS_P1;PMS_P2;Temp;Humidity;BMP_temperature;BMP_pressure;BME280_temperature;BME280_humidity;BME280_pressure;Samples;Min_cycle;Max_cycle;Signal;HPM_P1;HPM_P2
2022/06/01 00:00:58;;;;;;;5.18;4.28;;;11.00;99.90;;;;;;5114339;28;20173;-57
2022/06/01 00:03:24;;;;;;;3.90;3.53;;;10.90;99.90;;;;;;5115561;28;20196;-57
2022/06/01 00:05:54;;;;;;;4.78;4.28;;;10.80;99.90;;;;;;5116108;28;20181;-57
2022/06/01 00:08:24;;;;;;;5.00;4.47;;;10.80;99.90;;;;;;5116250;28;20264;-58
2022/06/01 00:10:50;;;;;;;4.22;3.83;;;10.70;99.90;;;;;;5115676;28;20169;-58
2022/06/01 00:13:17;;;;;;;4.35;3.88;;;10.70;99.90;;;;;;5116217;28;20695;-58
2022/06/01 00:15:42;;;;;;;4.57;3.70;;;10.60;99.90;;;;;;5116332;28;20168;-58
2022/06/01 00:18:08;;;;;;;4.22;3.75;;;10.60;99.90;;;;;;5116100;28;20722;-58
2022/06/01 00:20:35;;;;;;;3.75;3.33;;;10.60;99.90;;;;;;5116114;28;20173;-57
2022/06/01 00:23:01;;;;;;;3.38;3.08;;;10.60;99.90;;;;;;5115975;28;20173;-57
2022/06/01 00:25:27;;;;;;;3.58;3.28;;;10.60;99.90;;;;;;5116103;28;20188;-57
2022/06/01 00:27:53;;;;;;;3.25;2.95;;;10.50;99.90;;;;;;5115877;28;20657;-58
2022/06/01 00:30:19;;;;;;;3.35;3.05;;;10.50;99.90;;;;;;5115961;28;20281;-57
2022/06/01 00:32:45;;;;;;;3.30;3.00;;;10.40;99.90;;;;;;5114445;28;20525;-57
2022/06/01 00:35:14;;;;;;;3.38;3.08;;;10.40;99.90;;;;;;5115462;28;20288;-58
2022/06/01 00:37:41;;;;;;;3.70;2.92;;;10.30;99.90;;;;;;5115621;28;20169;-58
2022/06/01 00:40:09;;;;;;;4.70;3.13;;;10.30;99.90;;;;;;5115901;28;20174;-57
2022/06/01 00:42:37;;;;;;;3.10;2.80;;;10.30;99.90;;;;;;5114917;28;20261;-58
2022/06/01 00:45:04;;;;;;;3.22;2.92;;;10.30;99.90;;;;;;5115984;28;20182;-57
2022/06/01 00:47:30;;;;;;;2.60;2.40;;;10.20;99.90;;;;;;5115510;28;20216;-58
2022/06/01 00:50:17;;;;;;;2.70;2.50;;;10.20;99.90;;;;;;5115475;28;20169;-57
2022/06/01 00:52:48;;;;;;;2.75;2.40;;;10.20;99.90;;;;;;5115577;28;20180;-57
2022/06/01 00:55:21;;;;;;;2.88;2.58;;;10.10;99.90;;;;;;5115426;28;20209;-57
2022/06/01 00:57:50;;;;;;;2.90;2.50;;;10.20;99.90;;;;;;5115471;28;20211;-57
2022/06/01 01:00:21;;;;;;;2.92;2.40;;;10.10;99.90;;;;;;5115149;28;20197;-58
2022/06/01 01:02:48;;;;;;;2.58;2.30;;;10.10;99.90;;;;;;5115224;28;20172;-57
2022/06/01 01:05:16;;;;;;;2.30;2.00;;;10.10;99.90;;;;;;5115267;28;20745;-57
2022/06/01 01:07:43;;;;;;;2.38;2.17;;;10.10;99.90;;;;;;5115236;28;20645;-58
2022/06/01 01:10:11;;;;;;;2.55;2.00;;;10.10;99.90;;;;;;5113844;28;20177;-57
2022/06/01 01:12:56;;;;;;;3.50;2.00;;;10.10;99.90;;;;;;5115382;28;20173;-57
2022/06/01 01:15:24;;;;;;;3.45;2.22;;;10.10;99.90;;;;;;5115184;28;20208;-58
2022/06/01 01:17:50;;;;;;;2.40;1.92;;;10.10;99.90;;;;;;5114780;28;20538;-57
2022/06/01 01:20:17;;;;;;;2.30;2.05;;;10.10;99.90;;;;;;5114901;28;20607;-58
2022/06/01 01:22:51;;;;;;;2.58;2.10;;;10.10;99.90;;;;;;5114796;28;20630;-57
2022/06/01 01:25:17;;;;;;;2.15;1.70;;;10.00;99.90;;;;;;5114749;28;20252;-57
2022/06/01 01:27:45;;;;;;;2.35;2.03;;;9.90;99.90;;;;;;5114880;28;20264;-57
2022/06/01 01:30:38;;;;;;;2.22;2.00;;;9.90;99.90;;;;;;5114732;28;20226;-57
2022/06/01 01:33:13;;;;;;;2.20;1.88;;;9.90;99.90;;;;;;5114723;28;20174;-58
2022/06/01 01:35:44;;;;;;;2.08;1.60;;;9.80;99.90;;;;;;5114461;28;20600;-57
2022/06/01 01:38:28;;;;;;;1.95;1.58;;;9.90;99.90;;;;;;5114793;28;20637;-58
2022/06/01 01:41:04;;;;;;;2.10;1.90;;;9.80;99.90;;;;;;5114418;28;20177;-58
2022/06/01 01:43:32;;;;;;;1.90;1.60;;;9.80;99.90;;;;;;5114488;28;20333;-58
2022/06/01 01:45:57;;;;;;;2.08;1.63;;;9.80;99.90;;;;;;5114427;28;20179;-57
2022/06/01 01:48:23;;;;;;;2.05;1.60;;;9.90;99.90;;;;;;5114284;28;20166;-57
2022/06/01 01:50:49;;;;;;;1.40;1.30;;;9.90;99.90;;;;;;5114573;28;20582;-58
2022/06/01 01:53:15;;;;;;;2.80;1.95;;;9.90;99.90;;;;;;5114306;28;20177;-57
2022/06/01 01:55:56;;;;;;;2.22;1.77;;;9.90;99.90;;;;;;5113074;28;20291;-58
2022/06/01 01:58:41;;;;;;;1.75;1.65;;;9.90;99.90;;;;;;5112956;28;20172;-58
2022/06/01 02:01:15;;;;;;;1.80;1.50;;;10.00;99.90;;;;;;5114367;28;20260;-58
2022/06/01 02:06:03;;;;;;;2.00;1.67;;;9.90;99.90;;;;;;5114226;28;20176;-57
2022/06/01 02:07:03;;;;;;;1.52;1.42;;;9.90;99.90;;;;;;5114101;28;20208;-57
2022/06/01 02:12:41;;;;;;;2.63;1.70;;;9.90;99.90;;;;;;5114220;28;20173;-58
2022/06/01 02:15:00;;;;;;;1.48;1.38;;;9.80;99.90;;;;;;5113982;28;20350;-57
2022/06/01 02:17:49;;;;;;;2.40;1.60;;;9.80;99.90;;;;;;5113863;28;20185;-57
2022/06/01 02:20:33;;;;;;;1.67;1.58;;;9.70;99.90;;;;;;5114067;28;20177;-57
2022/06/01 02:23:01;;;;;;;1.55;1.30;;;9.70;99.90;;;;;;5114102;28;20173;-57
2022/06/01 02:25:27;;;;;;;1.63;1.52;;;9.70;99.90;;;;;;5113828;28;20230;-57
2022/06/01 02:27:57;;;;;;;1.83;1.67;;;9.70;99.90;;;;;;5112521;28;20173;-57
2022/06/01 02:30:33;;;;;;;1.65;1.55;;;9.60;99.90;;;;;;5113964;28;20271;-57
2022/06/01 02:33:04;;;;;;;1.70;1.60;;;9.50;99.90;;;;;;5113880;28;20285;-57
2022/06/01 02:35:36;;;;;;;1.50;1.40;;;9.50;99.90;;;;;;5113635;28;20219;-57
2022/06/01 02:38:05;;;;;;;1.77;1.38;;;9.50;99.90;;;;;;5113753;28;20272;-58
2022/06/01 02:40:31;;;;;;;1.80;1.55;;;9.50;99.90;;;;;;5113557;28;20168;-57
2022/06/01 02:42:57;;;;;;;1.70;1.58;;;9.50;99.90;;;;;;5113764;28;20188;-57
2022/06/01 02:45:25;;;;;;;1.75;1.58;;;9.60;99.90;;;;;;5113740;28;20173;-57
2022/06/01 02:47:53;;;;;;;2.33;1.63;;;9.60;99.90;;;;;;5113658;28;20687;-57
2022/06/01 02:50:23;;;;;;;1.77;1.67;;;9.60;99.90;;;;;;5113595;28;20161;-57
2022/06/01 02:52:49;;;;;;;2.17;1.77;;;9.50;99.90;;;;;;5113422;28;20170;-57
2022/06/01 02:55:16;;;;;;;2.03;1.80;;;9.50;99.90;;;;;;5113598;28;20208;-57
2022/06/01 02:57:42;;;;;;;2.10;1.90;;;9.50;99.90;;;;;;5095517;28;20181;-57
2022/06/01 03:00:17;;;;;;;2.17;1.45;;;9.40;99.90;;;;;;5113478;28;20181;-57
2022/06/01 03:02:44;;;;;;;1.60;1.50;;;9.40;99.90;;;;;;5113625;28;20645;-57
2022/06/01 03:05:10;;;;;;;2.08;1.52;;;9.40;99.90;;;;;;5115075;28;20181;-57
2022/06/01 03:07:36;;;;;;;2.45;1.73;;;9.40;99.90;;;;;;5117827;28;20203;-57
2022/06/01 03:10:02;;;;;;;2.00;1.63;;;9.40;99.90;;;;;;5117581;28;20253;-56
2022/06/01 03:12:27;;;;;;;2.05;1.83;;;9.50;99.90;;;;;;5116274;28;20199;-59
2022/06/01 03:14:53;;;;;;;1.90;1.70;;;9.50;99.90;;;;;;5116176;28;20205;-57
2022/06/01 03:17:19;;;;;;;2.85;1.83;;;9.40;99.90;;;;;;5117242;28;20181;-57
2022/06/01 03:19:44;;;;;;;1.63;1.50;;;9.40;99.90;;;;;;5117303;28;20173;-57
2022/06/01 03:22:10;;;;;;;2.17;1.50;;;9.50;99.90;;;;;;5115992;28;20626;-57
2022/06/01 03:24:35;;;;;;;2.60;1.90;;;9.40;99.90;;;;;;5117143;28;20184;-57
2022/06/01 03:27:02;;;;;;;2.00;1.70;;;9.50;99.90;;;;;;5117204;28;20199;-57
2022/06/01 03:29:28;;;;;;;1.98;1.70;;;9.50;99.90;;;;;;5117054;28;20178;-58
2022/06/01 03:31:54;;;;;;;2.25;2.05;;;9.50;99.90;;;;;;5115770;28;20225;-57
2022/06/01 03:34:20;;;;;;;2.42;1.98;;;9.50;99.90;;;;;;5116955;28;20205;-57
2022/06/01 03:36:46;;;;;;;2.42;1.95;;;9.50;99.90;;;;;;5117138;28;20188;-57
2022/06/01 03:39:11;;;;;;;2.30;1.88;;;9.40;99.90;;;;;;5115910;28;20313;-57
2022/06/01 03:41:37;;;;;;;2.25;1.67;;;9.40;99.90;;;;;;5115746;28;20208;-57
2022/06/01 03:46:47;;;;;;;2.35;2.08;;;9.40;99.90;;;;;;5116848;28;20176;-57
2022/06/01 03:49:13;;;;;;;2.78;2.00;;;9.50;99.90;;;;;;5115306;28;20177;-57
2022/06/01 03:51:38;;;;;;;3.05;2.13;;;9.50;99.90;;;;;;5116821;28;20622;-57
2022/06/01 03:54:06;;;;;;;1.65;1.55;;;9.50;99.90;;;;;;5115348;28;20208;-57
2022/06/01 03:56:32;;;;;;;2.65;2.00;;;9.50;99.90;;;;;;5115389;28;20297;-57
2022/06/01 03:58:58;;;;;;;2.42;2.15;;;9.50;99.90;;;;;;5116547;28;20173;-57
2022/06/01 04:01:24;;;;;;;2.00;1.60;;;9.40;99.90;;;;;;5116433;28;20176;-56
2022/06/01 04:03:50;;;;;;;2.25;1.70;;;9.40;99.90;;;;;;5116364;28;20181;-57
2022/06/01 04:06:16;;;;;;;2.35;2.10;;;9.40;99.90;;;;;;5115167;28;20238;-58
2022/06/01 04:08:42;;;;;;;2.63;1.73;;;9.40;99.90;;;;;;5116434;28;20174;-58
2022/06/01 04:11:07;;;;;;;2.75;2.20;;;9.50;99.90;;;;;;5116237;28;20174;-57
2022/06/01 04:13:33;;;;;;;2.38;2.03;;;9.40;99.90;;;;;;5116174;28;20665;-57
2022/06/01 04:15:59;;;;;;;2.67;1.77;;;9.40;99.90;;;;;;5115111;28;20173;-57
2022/06/01 04:18:25;;;;;;;2.28;1.70;;;9.60;99.90;;;;;;5114711;28;20177;-57
2022/06/01 04:20:52;;;;;;;2.30;1.90;;;9.50;99.90;;;;;;5116225;28;20180;-57
2022/06/01 04:23:18;;;;;;;1.88;1.60;;;9.60;99.90;;;;;;5114823;28;20180;-57
2022/06/01 04:25:44;;;;;;;2.67;1.80;;;9.60;99.90;;;;;;5114785;28;20170;-57
2022/06/01 04:28:11;;;;;;;3.15;1.73;;;9.70;99.90;;;;;;5116195;28;20181;-57
2022/06/01 04:30:36;;;;;;;2.30;1.65;;;9.70;99.90;;;;;;5115945;28;20170;-57
2022/06/01 04:33:03;;;;;;;3.10;1.98;;;9.70;99.90;;;;;;5115761;28;20183;-57
2022/06/01 04:35:29;;;;;;;2.10;1.90;;;9.80;99.90;;;;;;5114722;28;20581;-57
2022/06/01 04:38:12;;;;;;;1.80;1.70;;;9.80;99.90;;;;;;5115489;28;20260;-57
2022/06/01 04:40:39;;;;;;;2.60;1.88;;;9.80;99.90;;;;;;5115748;28;20185;-57
2022/06/01 04:43:04;;;;;;;2.90;1.92;;;9.80;99.90;;;;;;5115727;28;20173;-57
2022/06/01 04:45:30;;;;;;;2.50;2.28;;;9.80;99.90;;;;;;5115596;28;20231;-57
2022/06/01 04:47:56;;;;;;;2.20;2.00;;;9.90;99.90;;;;;;5115796;28;20169;-56
2022/06/01 04:50:21;;;;;;;1.55;1.42;;;9.90;99.90;;;;;;5115649;28;20649;-57
2022/06/01 04:52:47;;;;;;;3.35;2.20;;;10.00;99.90;;;;;;5115594;28;20184;-57
2022/06/01 04:55:12;;;;;;;2.20;1.95;;;10.10;99.90;;;;;;5115275;28;20223;-55
2022/06/01 04:57:39;;;;;;;2.53;2.20;;;10.10;99.90;;;;;;5115378;28;20173;-55
2022/06/01 05:00:07;;;;;;;2.60;2.10;;;10.30;99.90;;;;;;5115204;28;20577;-58
2022/06/01 05:02:33;;;;;;;2.25;2.05;;;10.30;99.90;;;;;;5115476;28;20162;-57
2022/06/01 05:04:59;;;;;;;2.10;1.75;;;10.40;99.90;;;;;;5114731;28;20508;-55
2022/06/01 05:07:25;;;;;;;2.03;1.75;;;10.40;99.90;;;;;;5113773;28;20204;-56
2022/06/01 05:09:50;;;;;;;3.42;2.20;;;10.40;99.90;;;;;;5115457;28;20185;-57
2022/06/01 05:12:16;;;;;;;2.15;1.88;;;10.50;99.90;;;;;;5114958;28;20173;-58
2022/06/01 05:14:42;;;;;;;3.38;2.40;;;10.50;99.90;;;;;;5115111;28;20212;-57
2022/06/01 05:17:07;;;;;;;2.20;1.90;;;10.60;99.90;;;;;;5115200;28;20230;-56
2022/06/01 05:19:34;;;;;;;2.42;2.03;;;10.60;99.90;;;;;;5115023;28;20169;-56
2022/06/01 05:22:00;;;;;;;3.05;2.08;;;10.80;99.90;;;;;;5114930;28;20170;-56
2022/06/01 05:24:26;;;;;;;3.22;2.35;;;10.80;99.90;;;;;;5114784;28;20700;-57
2022/06/01 05:26:51;;;;;;;3.03;2.40;;;10.90;99.90;;;;;;5114783;28;20226;-60
2022/06/01 05:29:17;;;;;;;2.83;2.40;;;10.80;99.90;;;;;;5113109;28;20177;-57
2022/06/01 05:31:46;;;;;;;3.10;2.30;;;10.90;99.90;;;;;;5113351;28;20203;-57
2022/06/01 05:34:12;;;;;;;3.03;2.35;;;11.00;99.90;;;;;;5114644;28;20205;-56
2022/06/01 05:36:37;;;;;;;3.63;2.38;;;11.10;99.90;;;;;;5114548;28;20298;-55
2022/06/01 05:39:04;;;;;;;2.90;2.60;;;11.30;99.90;;;;;;5113282;28;20178;-55
2022/06/01 05:41:30;;;;;;;2.50;2.28;;;11.30;99.90;;;;;;5113222;28;20173;-56
2022/06/01 05:43:55;;;;;;;2.60;2.33;;;11.40;99.90;;;;;;5114691;28;20226;-56
2022/06/01 05:46:23;;;;;;;2.65;2.30;;;11.50;99.90;;;;;;5113419;28;20551;-57
2022/06/01 05:48:48;;;;;;;3.67;2.70;;;11.70;99.90;;;;;;5114398;28;20173;-56
2022/06/01 05:51:14;;;;;;;3.78;2.40;;;11.80;99.90;;;;;;5114479;28;20758;-56
2022/06/01 05:53:40;;;;;;;4.30;2.78;;;11.80;99.90;;;;;;5113032;28;20165;-58
2022/06/01 05:56:06;;;;;;;3.88;2.97;;;11.80;99.90;;;;;;5114207;28;20169;-57
2022/06/01 05:58:32;;;;;;;3.58;2.67;;;11.90;99.90;;;;;;5114102;28;20172;-56
2022/06/01 06:01:05;;;;;;;3.45;2.50;;;11.90;99.90;;;;;;5114261;28;20523;-57
2022/06/01 06:03:31;;;;;;;2.38;2.15;;;12.00;99.90;;;;;;5114307;28;20215;-58
2022/06/01 06:06:15;;;;;;;3.78;2.58;;;12.00;99.90;;;;;;5113983;28;20189;-57
2022/06/01 06:08:51;;;;;;;3.00;2.50;;;12.00;99.90;;;;;;5113901;28;20165;-58
2022/06/01 06:11:17;;;;;;;3.83;2.85;;;12.00;99.90;;;;;;5114262;28;20200;-56
2022/06/01 06:13:44;;;;;;;4.13;2.90;;;12.00;99.90;;;;;;5114011;28;20218;-57
2022/06/01 06:16:11;;;;;;;3.45;3.15;;;11.90;99.90;;;;;;5114038;28;20204;-57
2022/06/01 06:18:37;;;;;;;4.28;2.80;;;12.00;99.90;;;;;;5113728;28;20178;-57
2022/06/01 06:21:03;;;;;;;3.20;2.55;;;12.00;99.90;;;;;;5113875;28;20199;-57
2022/06/01 06:23:29;;;;;;;3.42;3.13;;;12.20;99.90;;;;;;5114033;28;20172;-58
2022/06/01 06:25:55;;;;;;;5.95;3.47;;;12.60;99.90;;;;;;5113993;28;20173;-56
2022/06/01 06:28:20;;;;;;;4.70;2.58;;;12.80;99.90;;;;;;5113711;28;20173;-57
2022/06/01 06:30:46;;;;;;;5.90;3.20;;;12.90;99.90;;;;;;5113716;28;20246;-57
2022/06/01 06:33:12;;;;;;;3.30;2.90;;;13.30;99.90;;;;;;5112630;28;20179;-57
2022/06/01 06:35:37;;;;;;;4.28;3.10;;;13.50;99.90;;;;;;5113573;28;20235;-57
2022/06/01 06:38:04;;;;;;;3.88;3.03;;;13.60;99.90;;;;;;5113920;28;20185;-57
2022/06/01 06:40:30;;;;;;;5.78;3.38;;;13.90;99.90;;;;;;5113016;28;20173;-57
2022/06/01 06:42:55;;;;;;;3.25;2.85;;;14.00;99.90;;;;;;5114024;28;20652;-57
2022/06/01 06:45:22;;;;;;;3.45;2.90;;;14.00;99.90;;;;;;5113551;28;20215;-57
2022/06/01 06:47:48;;;;;;;2.78;2.33;;;13.90;99.90;;;;;;5112320;28;20637;-57
2022/06/01 06:50:16;;;;;;;2.97;2.67;;;13.70;99.90;;;;;;5113459;28;20635;-57
2022/06/01 06:52:41;;;;;;;3.45;2.97;;;13.60;99.90;;;;;;5113677;28;20170;-58
2022/06/01 06:55:08;;;;;;;3.30;2.63;;;13.70;99.90;;;;;;5113662;28;20219;-57
2022/06/01 06:57:34;;;;;;;3.25;2.72;;;13.70;99.90;;;;;;5112335;28;20169;-58
2022/06/01 06:59:59;;;;;;;3.13;2.67;;;13.70;99.90;;;;;;5113778;28;20234;-57
2022/06/01 07:02:25;;;;;;;3.28;2.60;;;13.90;99.90;;;;;;5113400;28;20627;-57
2022/06/01 07:04:51;;;;;;;2.75;2.30;;;14.00;99.90;;;;;;5113351;28;20259;-57
2022/06/01 07:07:17;;;;;;;4.82;2.97;;;14.20;99.90;;;;;;5113578;28;20224;-58
2022/06/01 07:09:43;;;;;;;6.05;3.47;;;14.40;99.90;;;;;;5113552;28;20162;-56
2022/06/01 07:12:10;;;;;;;5.07;3.20;;;14.60;99.90;;;;;;5113324;28;20173;-57
2022/06/01 07:14:36;;;;;;;4.80;3.25;;;14.60;99.90;;;;;;5113243;28;20209;-57
2022/06/01 07:17:02;;;;;;;4.03;2.92;;;14.80;99.90;;;;;;5113321;28;20606;-58
2022/06/01 07:19:28;;;;;;;3.63;2.58;;;15.00;99.90;;;;;;5113185;28;20194;-58
2022/06/01 07:21:54;;;;;;;4.15;2.80;;;15.30;99.90;;;;;;5112079;28;20615;-57
2022/06/01 07:24:21;;;;;;;3.20;2.90;;;15.40;99.90;;;;;;5113449;28;20173;-58
2022/06/01 07:26:47;;;;;;;4.68;2.80;;;15.70;99.90;;;;;;5113361;28;20261;-57
2022/06/01 07:29:15;;;;;;;3.95;2.75;;;15.70;99.90;;;;;;5113249;28;20165;-57
2022/06/01 07:31:42;;;;;;;3.17;2.25;;;15.70;99.90;;;;;;5113123;28;20181;-58
2022/06/01 07:34:08;;;;;;;4.30;2.55;;;15.70;99.90;;;;;;5112920;28;20678;-58
2022/06/01 07:36:35;;;;;;;3.10;2.60;;;15.60;99.90;;;;;;5113098;28;20183;-58
2022/06/01 07:44:46;;;;;;;3.08;2.42;;;15.80;99.90;;;;;;5113310;28;20184;-58
2022/06/01 07:47:12;;;;;;;2.92;2.28;;;15.80;99.90;;;;;;5113184;28;20626;-58
2022/06/01 07:49:38;;;;;;;2.80;2.50;;;15.80;99.90;;;;;;5113165;28;20254;-57
2022/06/01 07:52:08;;;;;;;3.83;2.63;;;15.70;99.90;;;;;;5115976;28;20619;-59
2022/06/01 07:54:36;;;;;;;6.90;3.05;;;15.80;99.90;;;;;;5116637;28;20201;-58
2022/06/01 07:57:02;;;;;;;4.05;3.13;;;15.90;99.90;;;;;;5116421;28;20171;-58
2022/06/01 07:59:27;;;;;;;3.53;2.78;;;15.90;99.90;;;;;;5116778;28;20173;-58
2022/06/01 08:01:53;;;;;;;3.25;2.75;;;16.00;99.90;;;;;;5115441;28;20181;-58
2022/06/01 08:04:19;;;;;;;4.05;3.45;;;16.20;99.90;;;;;;5116394;28;20215;-58
2022/06/01 08:06:45;;;;;;;2.65;2.45;;;16.20;99.90;;;;;;5116515;28;20250;-58
2022/06/01 08:09:11;;;;;;;3.70;2.95;;;16.20;99.90;;;;;;5116345;28;20176;-58
2022/06/01 08:14:21;;;;;;;4.57;2.90;;;16.30;99.90;;;;;;5116396;28;20625;-58
2022/06/01 08:16:46;;;;;;;3.40;2.75;;;16.30;99.90;;;;;;5116259;28;20169;-58
2022/06/01 08:19:14;;;;;;;4.93;2.90;;;16.50;99.90;;;;;;5116038;28;20589;-58
2022/06/01 08:21:40;;;;;;;4.05;2.75;;;16.50;99.90;;;;;;5116164;28;20180;-60
2022/06/01 08:24:07;;;;;;;2.22;2.03;;;16.60;99.90;;;;;;5116034;28;20201;-58
2022/06/01 08:26:33;;;;;;;2.95;2.30;;;16.80;99.90;;;;;;5115973;28;20694;-58
2022/06/01 08:28:59;;;;;;;4.13;2.67;;;17.10;99.90;;;;;;5116076;28;20180;-58
2022/06/01 08:31:27;;;;;;;2.97;2.38;;;17.10;99.90;;;;;;5116004;28;20536;-58
2022/06/01 08:33:57;;;;;;;2.67;2.13;;;17.20;99.90;;;;;;5114652;28;20181;-58
2022/06/01 08:36:24;;;;;;;2.63;2.42;;;16.70;99.90;;;;;;5114576;28;20177;-58
2022/06/01 08:38:50;;;;;;;2.15;1.90;;;17.00;99.90;;;;;;5114493;28;20584;-58
2022/06/01 08:41:19;;;;;;;2.63;2.10;;;17.20;99.90;;;;;;5115901;28;20665;-59
2022/06/01 08:43:50;;;;;;;2.80;1.83;;;17.20;99.90;;;;;;5115838;28;20162;-58
2022/06/01 08:46:18;;;;;;;2.40;1.67;;;17.20;99.90;;;;;;5115641;28;20161;-58
2022/06/01 08:48:51;;;;;;;2.75;2.20;;;17.30;99.90;;;;;;5115649;27;20165;-58
2022/06/01 08:51:22;;;;;;;2.63;1.88;;;17.60;99.90;;;;;;5115481;28;20652;-58
2022/06/01 08:53:47;;;;;;;2.53;1.90;;;17.80;99.90;;;;;;5115721;28;20192;-58
2022/06/01 08:56:23;;;;;;;2.50;2.20;;;18.00;99.90;;;;;;5115862;28;20646;-58
2022/06/01 08:59:13;;;;;;;2.80;2.20;;;17.70;99.90;;;;;;5115515;28;20169;-58
2022/06/01 09:02:11;;;;;;;2.20;2.00;;;17.30;99.90;;;;;;5115186;28;20170;-58
2022/06/01 09:05:14;;;;;;;2.22;2.03;;;17.00;99.90;;;;;;5091440;28;20222;-58
2022/06/01 09:07:44;;;;;;;2.88;2.38;;;16.80;99.90;;;;;;5115248;28;20188;-59
2022/06/01 09:10:20;;;;;;;2.95;1.90;;;16.80;99.90;;;;;;5113937;28;20503;-58
2022/06/01 09:13:00;;;;;;;2.15;1.95;;;16.70;99.90;;;;;;5115337;28;20734;-58
2022/06/01 09:15:27;;;;;;;2.30;2.10;;;16.70;99.90;;;;;;5115081;28;20586;-58
2022/06/01 09:17:56;;;;;;;2.20;1.73;;;16.90;99.90;;;;;;5115086;28;20178;-58
2022/06/01 09:23:15;;;;;;;1.73;1.60;;;17.90;99.90;;;;;;5114842;28;20727;-58
2022/06/01 09:25:50;;;;;;;2.05;1.77;;;18.00;99.90;;;;;;5114990;28;20177;-59
2022/06/01 09:28:28;;;;;;;2.10;1.83;;;18.20;99.90;;;;;;5114841;28;20264;-60
2022/06/01 09:31:08;;;;;;;2.63;1.75;;;18.00;99.90;;;;;;5114745;28;20649;-58
2022/06/01 09:33:37;;;;;;;1.88;1.70;;;17.90;99.90;;;;;;5114885;28;20648;-58
2022/06/01 09:36:09;;;;;;;2.08;1.80;;;17.80;99.90;;;;;;5114865;28;20538;-58
2022/06/01 09:38:47;;;;;;;2.60;1.85;;;17.70;99.90;;;;;;5114657;28;20622;-58
2022/06/01 09:41:36;;;;;;;1.70;1.60;;;17.70;99.90;;;;;;5113178;28;20657;-58
2022/06/01 09:44:11;;;;;;;3.20;1.70;;;17.70;99.90;;;;;;5114630;28;20177;-58
2022/06/01 09:46:40;;;;;;;2.28;2.00;;;18.00;99.90;;;;;;5114574;28;20203;-59
2022/06/01 09:49:19;;;;;;;2.45;1.80;;;18.50;99.90;;;;;;5113166;28;20177;-59
2022/06/01 09:51:48;;;;;;;2.20;1.95;;;19.00;99.90;;;;;;5114374;28;20180;-58
2022/06/01 09:54:20;;;;;;;1.67;1.15;;;19.30;99.90;;;;;;5114330;28;20280;-58
2022/06/01 09:56:48;;;;;;;1.45;1.35;;;19.50;99.90;;;;;;5114372;28;20530;-58
2022/06/01 10:08:08;;;;;;;2.13;1.92;;;18.60;99.90;;;;;;5114432;28;20554;-58
2022/06/01 10:10:35;;;;;;;2.17;1.77;;;18.20;99.90;;;;;;5114543;28;20177;-58
2022/06/01 10:13:02;;;;;;;2.80;1.65;;;17.90;99.90;;;;;;5114257;28;20169;-58
2022/06/01 10:15:46;;;;;;;1.60;1.20;;;18.00;99.90;;;;;;5112935;28;20216;-60
2022/06/01 10:18:23;;;;;;;2.45;1.50;;;18.30;99.90;;;;;;5114023;28;20185;-58
2022/06/01 10:21:08;;;;;;;1.45;1.35;;;18.60;99.90;;;;;;5113729;28;20550;-58
2022/06/01 10:23:44;;;;;;;2.65;1.50;;;18.50;99.90;;;;;;5114002;28;20177;-58
2022/06/01 10:26:16;;;;;;;1.88;1.65;;;18.00;99.90;;;;;;5113932;28;20222;-58
2022/06/01 10:28:51;;;;;;;2.03;1.60;;;17.60;99.90;;;;;;5113866;27;20257;-58
2022/06/01 10:31:39;;;;;;;2.17;1.15;;;17.20;99.90;;;;;;5113670;28;20232;-58
2022/06/01 10:34:23;;;;;;;1.30;1.23;;;16.60;99.90;;;;;;5113947;28;20196;-58
2022/06/01 10:37:23;;;;;;;1.77;1.38;;;15.90;99.90;;;;;;5113724;28;20221;-58
2022/06/01 10:40:06;;;;;;;1.50;1.40;;;15.60;99.90;;;;;;5110710;28;20673;-58
2022/06/01 10:45:23;;;;;;;1.83;1.20;;;14.80;99.90;;;;;;5113547;28;20247;-58
2022/06/01 10:48:05;;;;;;;1.55;1.45;;;14.60;99.90;;;;;;5113461;28;20279;-58
2022/06/01 10:50:55;;;;;;;1.63;1.00;;;14.50;99.90;;;;;;5113392;28;20169;-58
2022/06/01 10:54:00;;;;;;;1.27;0.95;;;14.40;99.90;;;;;;5113190;28;20181;-58
2022/06/01 10:56:27;;;;;;;0.70;0.70;;;14.30;99.90;;;;;;5104226;28;20549;-58
2022/06/01 10:58:58;;;;;;;0.70;0.70;;;14.20;99.90;;;;;;5113593;28;20242;-58
2022/06/01 11:01:44;;;;;;;0.70;0.70;;;14.10;99.90;;;;;;5113660;28;20640;-57
2022/06/01 11:04:51;;;;;;;1.38;0.80;;;14.40;99.90;;;;;;5113719;28;20199;-57
2022/06/01 11:07:44;;;;;;;0.80;0.80;;;14.60;99.90;;;;;;5092241;28;20334;-58
2022/06/01 11:10:28;;;;;;;0.70;0.70;;;14.90;99.90;;;;;;5113515;28;20176;-58
2022/06/01 11:13:13;;;;;;;0.70;0.70;;;15.20;99.90;;;;;;5113314;28;20168;-58
2022/06/01 11:15:41;;;;;;;0.70;0.70;;;15.70;99.90;;;;;;5113402;28;20299;-58
2022/06/01 11:18:34;;;;;;;1.35;0.70;;;16.40;99.90;;;;;;5113443;28;20536;-58
2022/06/01 11:21:05;;;;;;;1.02;0.90;;;16.90;99.90;;;;;;5113377;28;20173;-59
2022/06/01 11:23:44;;;;;;;2.30;1.10;;;17.40;99.90;;;;;;5113404;28;20634;-58
2022/06/01 11:26:20;;;;;;;1.65;1.00;;;17.70;99.90;;;;;;5115267;28;20272;-58
2022/06/01 11:29:11;;;;;;;1.30;1.20;;;17.60;99.90;;;;;;5117177;28;20169;-58
2022/06/01 11:31:40;;;;;;;1.75;1.65;;;17.40;99.90;;;;;;5116772;28;20226;-58
2022/06/01 11:34:14;;;;;;;1.60;1.50;;;17.00;99.90;;;;;;5117126;28;20197;-58
2022/06/01 11:37:24;;;;;;;2.30;1.50;;;16.40;99.90;;;;;;5117006;28;20181;-58
2022/06/01 11:40:12;;;;;;;1.48;1.38;;;16.50;99.90;;;;;;5113609;28;20653;-58
2022/06/01 11:42:50;;;;;;;2.00;1.80;;;16.70;99.90;;;;;;5116196;28;20214;-58
2022/06/01 11:45:22;;;;;;;2.40;2.00;;;16.70;99.90;;;;;;5116154;28;20168;-59
2022/06/01 11:47:54;;;;;;;2.53;1.92;;;16.90;99.90;;;;;;5115884;28;20261;-58
2022/06/01 11:50:49;;;;;;;1.80;1.70;;;17.10;99.90;;;;;;5115790;28;20181;-58
2022/06/01 11:53:41;;;;;;;2.17;1.98;;;17.50;99.90;;;;;;5100170;28;20201;-58
2022/06/01 11:56:22;;;;;;;2.28;1.90;;;18.20;99.90;;;;;;5107929;28;20216;-58
2022/06/01 11:59:28;;;;;;;2.17;1.98;;;18.50;99.90;;;;;;5115617;28;20280;-58
2022/06/01 12:01:58;;;;;;;2.72;2.05;;;18.20;99.90;;;;;;5115800;28;20185;-58
2022/06/01 12:04:38;;;;;;;2.03;1.88;;;17.80;99.90;;;;;;5115698;28;20178;-58
2022/06/01 12:07:11;;;;;;;2.17;1.55;;;17.20;99.90;;;;;;5115670;28;20633;-59
2022/06/01 12:10:18;;;;;;;1.95;1.77;;;17.00;99.90;;;;;;5115748;28;20172;-58
2022/06/01 12:13:00;;;;;;;1.83;1.65;;;16.70;99.90;;;;;;5091604;28;20219;-58
2022/06/01 12:16:03;;;;;;;1.50;1.40;;;17.00;99.90;;;;;;5113884;28;20565;-58
2022/06/01 12:18:29;;;;;;;2.40;1.33;;;17.20;99.90;;;;;;5115196;28;20188;-58
2022/06/01 12:21:21;;;;;;;1.20;1.10;;;17.60;99.90;;;;;;5115294;28;20630;-58
2022/06/01 12:30:02;;;;;;;1.38;1.27;;;17.90;99.90;;;;;;5115416;28;20298;-58
2022/06/01 12:32:29;;;;;;;1.30;1.20;;;17.70;99.90;;;;;;5115209;28;20165;-59
2022/06/01 12:35:18;;;;;;;1.60;1.50;;;17.90;99.90;;;;;;5114943;28;20308;-58
2022/06/01 12:38:00;;;;;;;2.00;1.80;;;18.30;99.90;;;;;;5114022;28;20216;-58
2022/06/01 12:40:27;;;;;;;1.40;1.30;;;18.30;99.90;;;;;;5114933;28;20256;-58
2022/06/01 12:42:58;;;;;;;1.35;1.23;;;17.90;99.90;;;;;;5115035;28;20170;-59
2022/06/01 12:45:36;;;;;;;1.60;1.50;;;17.50;99.90;;;;;;5114962;28;20180;-58
2022/06/01 12:48:06;;;;;;;2.83;2.38;;;17.20;99.90;;;;;;5115202;28;20169;-58
2022/06/01 12:50:45;;;;;;;3.40;2.88;;;17.10;99.90;;;;;;5114733;28;20169;-59
2022/06/01 12:53:17;;;;;;;3.40;2.67;;;16.90;99.90;;;;;;5114995;28;20214;-58
2022/06/01 12:55:44;;;;;;;3.08;2.67;;;16.70;99.90;;;;;;5114388;27;20265;-58
2022/06/01 12:58:20;;;;;;;2.67;2.40;;;16.60;99.90;;;;;;5114718;28;20181;-58
2022/06/01 13:00:55;;;;;;;2.40;2.20;;;16.60;99.90;;;;;;5114624;28;20200;-58
2022/06/01 13:03:23;;;;;;;2.40;2.20;;;16.50;99.90;;;;;;5114351;28;20230;-58
2022/06/01 13:05:52;;;;;;;2.13;1.92;;;16.60;99.90;;;;;;5114368;28;20650;-59
2022/06/01 13:08:40;;;;;;;2.55;2.20;;;16.60;99.90;;;;;;5114527;28;20499;-58
2022/06/01 13:11:18;;;;;;;3.20;2.33;;;16.70;99.90;;;;;;5114305;28;20238;-58
2022/06/01 13:13:44;;;;;;;2.60;2.10;;;17.10;99.90;;;;;;5114237;28;20169;-58
2022/06/01 13:16:10;;;;;;;2.65;1.92;;;17.50;99.90;;;;;;5114268;28;20220;-58
2022/06/01 13:18:40;;;;;;;2.10;1.90;;;17.70;99.90;;;;;;5114289;28;20177;-58
2022/06/01 13:21:24;;;;;;;2.17;1.80;;;18.10;99.90;;;;;;5114221;28;20185;-59
2022/06/01 13:23:52;;;;;;;2.03;1.80;;;18.50;99.90;;;;;;5114058;28;20177;-58
2022/06/01 13:26:42;;;;;;;1.67;1.58;;;18.30;99.90;;;;;;5113957;28;20197;-58
2022/06/01 13:29:44;;;;;;;1.25;1.15;;;18.00;99.90;;;;;;5114184;28;20169;-58
2022/06/01 13:32:11;;;;;;;1.00;1.00;;;17.90;99.90;;;;;;5091445;28;20177;-58
2022/06/01 13:34:52;;;;;;;1.30;0.85;;;17.90;99.90;;;;;;5113694;28;20204;-58
2022/06/01 13:37:25;;;;;;;1.00;0.90;;;18.00;99.90;;;;;;5114201;28;20563;-58
2022/06/01 13:39:56;;;;;;;0.75;0.75;;;18.30;99.90;;;;;;5113878;28;20694;-58
2022/06/01 13:42:38;;;;;;;1.67;0.95;;;18.70;99.90;;;;;;5113649;28;20699;-58
2022/06/01 13:45:04;;;;;;;0.95;0.80;;;18.50;99.90;;;;;;5113691;28;20232;-59
2022/06/01 13:47:44;;;;;;;0.80;0.70;;;18.40;99.90;;;;;;5113832;28;20173;-58